Terminal Aerodrome Forecast
Issued by NWS Dodge City, KS

Home | Current Version | Previous Version | Text Only | Print | Product List | Glossary On
Versions: 1 2 3 4 5 6 7 8 9 10 11 12 13 14 15 16 17 18 19
000
FTUS43 KDDC 232320
TAFDDC
TAF
KDDC 232320Z 2400/2424 34017G32KT P6SM SKC
     FM240600 31011KT P6SM SKC
     FM241200 32013KT P6SM SKC WS020/34040KT
     FM241300 32015KT P6SM SKC
     FM241600 33023G32KT P6SM SKC
     FM242300 33016KT P6SM SKC=

USA.gov is the U.S. government's official web portal to all federal, state and local government web resources and services.